Airport Name : Walvis Bay

Other Name : Walvis Bay

ICAO : FYWB

IATA : WVB

FAA :

Latitude : -22.979889

Longitude : 14.645331

Country : Namibia

Local Date and Time : 20 Apr 2021 16:25

 

TAF (Terminal Aerodrome Forecast)

TAF FYWB 201000Z 2012/2112 08020KT CAVOK BECMG 2015/2017 21010KT

 

METAR (METeorological Aerodrome Report)

FYWB 201200Z 28009KT CAVOK 37/10 Q1013

FYWB 201100Z AUTO 30007KT //// // ////// 36/10 Q1014

To Charter a Jet Click here.